createdAt,value
2022-12-23T00:03:35.184Z,0
2022-12-23T00:13:12.277Z,0
2022-12-23T00:22:49.257Z,0
2022-12-23T00:32:26.953Z,0
2022-12-23T00:42:04.043Z,0
2022-12-23T00:51:41.100Z,0
2022-12-23T01:01:18.661Z,0
2022-12-23T01:10:55.695Z,0
2022-12-23T01:20:32.890Z,0
2022-12-23T01:30:10.051Z,0
2022-12-23T01:39:47.466Z,0
2022-12-23T01:49:24.277Z,0
2022-12-23T01:59:01.577Z,0
2022-12-23T02:08:38.381Z,0
2022-12-23T02:18:15.584Z,0
2022-12-23T02:27:52.412Z,0
2022-12-23T02:37:29.333Z,0
2022-12-23T02:47:06.393Z,0
2022-12-23T02:56:43.425Z,0
2022-12-23T03:06:20.337Z,0
2022-12-23T03:15:57.669Z,0
2022-12-23T03:25:34.630Z,0
2022-12-23T03:35:11.927Z,0
2022-12-23T03:45:11.010Z,0
2022-12-23T03:54:26.381Z,0
2022-12-23T04:04:03.058Z,0
2022-12-23T04:13:40.188Z,0
2022-12-23T04:23:17.134Z,0
2022-12-23T04:32:54.483Z,0
2022-12-23T04:42:31.482Z,0
2022-12-23T04:52:08.323Z,0
2022-12-23T05:01:45.649Z,0
2022-12-23T05:11:22.738Z,0
2022-12-23T05:21:00.000Z,0
2022-12-23T05:30:36.823Z,0
2022-12-23T05:40:15.035Z,0
2022-12-23T05:49:51.161Z,0
2022-12-23T05:59:31.152Z,0
2022-12-23T06:09:05.148Z,0
2022-12-23T06:18:42.536Z,0
2022-12-23T06:28:19.779Z,0
2022-12-23T06:37:57.353Z,0
2022-12-23T06:47:34.420Z,0
2022-12-23T06:57:11.246Z,0
2022-12-23T07:06:48.659Z,0
2022-12-23T07:16:26.385Z,5.63
2022-12-23T07:26:03.876Z,11.25
2022-12-23T07:35:41.403Z,22.5
2022-12-23T07:45:18.957Z,33.75
2022-12-23T07:54:56.397Z,33.75
2022-12-23T08:04:34.163Z,39.38
2022-12-23T08:14:11.953Z,45
2022-12-23T08:23:49.238Z,67.5
2022-12-23T08:33:25.802Z,95.63
2022-12-23T08:43:03.233Z,118.13
2022-12-23T08:52:41.594Z,129.38
2022-12-23T09:02:18.689Z,73.13
2022-12-23T09:11:55.392Z,61.88
2022-12-23T09:21:33.245Z,84.38
2022-12-23T09:31:11.551Z,106.88
2022-12-23T09:40:49.502Z,118.13
2022-12-23T09:50:27.534Z,129.38
2022-12-23T10:00:04.686Z,180
2022-12-23T10:09:43.620Z,202.5
2022-12-23T10:19:21.059Z,208.13
2022-12-23T10:28:58.070Z,202.5
2022-12-23T10:38:35.053Z,118.13
2022-12-23T10:48:14.049Z,135
2022-12-23T10:57:49.304Z,196.88
2022-12-23T11:07:45.611Z,286.88
2022-12-23T11:17:06.170Z,241.88
2022-12-23T11:26:43.459Z,208.13
2022-12-23T11:36:20.153Z,174.38
2022-12-23T11:45:57.443Z,168.75
2022-12-23T11:55:35.351Z,180
2022-12-23T12:05:12.559Z,112.5
2022-12-23T12:14:49.542Z,151.88
2022-12-23T12:24:27.189Z,146.25
2022-12-23T12:34:04.322Z,118.13
2022-12-23T12:43:41.581Z,95.63
2022-12-23T12:53:18.509Z,106.88
2022-12-23T13:02:56.201Z,129.38
2022-12-23T13:12:33.622Z,168.75
2022-12-23T13:22:10.990Z,101.25
2022-12-23T13:31:47.777Z,95.63
2022-12-23T13:41:24.674Z,101.25
2022-12-23T13:51:00.721Z,45
2022-12-23T14:00:37.339Z,39.38
2022-12-23T14:10:13.886Z,16.88
2022-12-23T14:19:50.789Z,11.25
2022-12-23T14:29:27.714Z,5.63
2022-12-23T14:39:04.783Z,5.63
2022-12-23T14:48:41.817Z,5.63
2022-12-23T14:58:18.693Z,5.63
2022-12-23T15:07:55.659Z,0
2022-12-23T15:17:32.848Z,0
2022-12-23T15:27:26.383Z,0
2022-12-23T15:36:46.818Z,0
2022-12-23T15:46:28.876Z,0
2022-12-23T15:56:00.033Z,0
2022-12-23T16:05:36.791Z,0
2022-12-23T16:15:13.510Z,0
2022-12-23T16:24:50.571Z,0
2022-12-23T16:34:27.704Z,0
2022-12-23T16:44:04.881Z,0
2022-12-23T16:53:41.972Z,0
2022-12-23T17:03:18.893Z,0
2022-12-23T17:12:56.530Z,0
2022-12-23T17:22:33.717Z,0
2022-12-23T17:32:10.995Z,0
2022-12-23T17:41:47.861Z,0
2022-12-23T17:51:25.182Z,0
2022-12-23T18:01:02.585Z,0
2022-12-23T18:10:39.694Z,0
2022-12-23T18:20:17.084Z,0
2022-12-23T18:29:54.308Z,0
2022-12-23T18:39:31.691Z,0
2022-12-23T18:49:08.944Z,0
2022-12-23T18:58:46.069Z,0
2022-12-23T19:08:26.551Z,0
2022-12-23T19:18:00.639Z,0
2022-12-23T19:27:37.881Z,0
2022-12-23T19:37:14.697Z,0
2022-12-23T19:46:52.006Z,0
2022-12-23T19:56:29.130Z,0
2022-12-23T20:06:06.299Z,0
2022-12-23T20:15:42.814Z,0
2022-12-23T20:25:19.472Z,0
2022-12-23T20:34:56.492Z,0
2022-12-23T20:44:35.412Z,0
2022-12-23T20:54:09.802Z,0
2022-12-23T21:03:46.282Z,0
2022-12-23T21:13:22.771Z,0
2022-12-23T21:22:59.488Z,0
2022-12-23T21:32:36.654Z,0
2022-12-23T21:42:13.774Z,0
2022-12-23T21:51:50.557Z,0
2022-12-23T22:01:28.887Z,0
2022-12-23T22:11:07.311Z,0
2022-12-23T22:20:46.429Z,0
2022-12-23T22:30:22.154Z,0
2022-12-23T22:39:59.765Z,0
2022-12-23T22:49:36.863Z,0
2022-12-23T22:59:16.249Z,0
2022-12-23T23:08:51.885Z,0
2022-12-23T23:18:29.420Z,0
2022-12-23T23:28:07.050Z,0
2022-12-23T23:37:45.003Z,0
2022-12-23T23:47:22.451Z,0
2022-12-23T23:56:59.942Z,0
